createdAt,value
2023-05-06T00:01:41.251Z,8.80
2023-05-06T00:04:08.466Z,11.13
2023-05-06T00:06:35.333Z,14.35
2023-05-06T00:09:03.279Z,10.07
2023-05-06T00:11:30.095Z,10.07
2023-05-06T00:13:56.721Z,13.88
2023-05-06T00:16:23.508Z,9.63
2023-05-06T00:18:50.243Z,8.65
2023-05-06T00:21:17.072Z,9.85
2023-05-06T00:23:43.798Z,6.35
2023-05-06T00:26:10.542Z,7.25
2023-05-06T00:28:37.282Z,9.25
2023-05-06T00:31:04.346Z,9.70
2023-05-06T00:33:31.003Z,9.88
2023-05-06T00:35:57.690Z,8.80
2023-05-06T00:38:26.019Z,9.68
2023-05-06T00:40:52.589Z,11.00
2023-05-06T00:43:19.236Z,10.80
2023-05-06T00:45:46.164Z,7.30
2023-05-06T00:48:13.344Z,7.20
2023-05-06T00:50:40.801Z,7.95
2023-05-06T00:53:09.269Z,7.60
2023-05-06T00:55:36.742Z,5.63
2023-05-06T00:58:03.661Z,8.55
2023-05-06T01:00:30.578Z,5.53
2023-05-06T01:02:57.395Z,8.52
2023-05-06T01:05:26.219Z,6.75
2023-05-06T01:08:13.974Z,7.55
2023-05-06T01:10:58.099Z,7.18
2023-05-06T01:13:36.059Z,9.70
2023-05-06T01:16:04.851Z,8.02
2023-05-06T01:18:32.512Z,6.60
2023-05-06T01:21:00.132Z,6.25
2023-05-06T01:23:27.025Z,6.75
2023-05-06T01:25:53.737Z,6.45
2023-05-06T01:28:20.768Z,7.53
2023-05-06T01:31:03.706Z,6.93
2023-05-06T01:33:49.468Z,9.75
2023-05-06T01:36:24.389Z,9.02
2023-05-06T01:38:53.185Z,8.60
2023-05-06T01:41:20.568Z,10.68
2023-05-06T01:43:48.687Z,8.40
2023-05-06T01:46:22.713Z,11.02
2023-05-06T01:48:53.918Z,7.95
2023-05-06T01:51:23.220Z,7.70
2023-05-06T01:53:49.916Z,9.38
2023-05-06T01:56:17.158Z,9.27
2023-05-06T01:58:43.811Z,9.15
2023-05-06T02:01:10.499Z,10.98
2023-05-06T02:03:37.559Z,6.68
2023-05-06T02:06:04.782Z,9.77
2023-05-06T02:08:35.963Z,7.90
2023-05-06T02:11:03.773Z,8.65
2023-05-06T02:13:31.509Z,5.40
2023-05-06T02:15:58.186Z,10.38
2023-05-06T02:18:25.408Z,7.57
2023-05-06T02:20:52.049Z,6.85
2023-05-06T02:23:18.613Z,8.55
2023-05-06T02:25:46.457Z,5.40
2023-05-06T02:28:13.073Z,6.95
2023-05-06T02:30:39.736Z,4.63
2023-05-06T02:33:06.337Z,8.80
2023-05-06T02:35:33.032Z,9.57
2023-05-06T02:37:59.769Z,9.63
2023-05-06T02:40:27.038Z,8.75
2023-05-06T02:42:53.679Z,10.82
2023-05-06T02:45:20.315Z,10.13
2023-05-06T02:47:46.902Z,10.23
2023-05-06T02:50:13.594Z,11.95
2023-05-06T02:52:40.217Z,10.57
2023-05-06T02:55:07.299Z,15.65
2023-05-06T02:57:34.202Z,10.95
2023-05-06T03:00:00.959Z,9.32
2023-05-06T03:02:27.750Z,10.80
2023-05-06T03:04:54.341Z,12.70
2023-05-06T03:07:21.021Z,13.00
2023-05-06T03:09:48.141Z,11.10
2023-05-06T03:12:14.862Z,14.02
2023-05-06T03:14:41.450Z,14.18
2023-05-06T03:17:08.124Z,11.93
2023-05-06T03:19:36.660Z,10.82
2023-05-06T03:22:05.500Z,10.98
2023-05-06T03:24:34.520Z,14.95
2023-05-06T03:27:03.414Z,10.65
2023-05-06T03:29:30.191Z,8.45
2023-05-06T03:31:57.437Z,22.85
2023-05-06T03:34:25.934Z,91.30
2023-05-06T03:36:52.643Z,80.18
2023-05-06T03:39:19.561Z,36.20
2023-05-06T03:41:46.285Z,63.55
2023-05-06T03:44:13.568Z,438.85
2023-05-06T03:46:41.704Z,92.78
2023-05-06T03:49:08.784Z,79.13
2023-05-06T03:51:35.574Z,182.80
2023-05-06T03:54:03.486Z,61.15
2023-05-06T03:56:31.139Z,93.60
2023-05-06T03:58:59.045Z,48.67
2023-05-06T04:01:27.163Z,75.78
2023-05-06T04:03:54.429Z,37.42
2023-05-06T04:06:22.342Z,118.60
2023-05-06T04:08:49.013Z,160.73
2023-05-06T04:11:17.089Z,42.63
2023-05-06T04:13:45.921Z,38.45
2023-05-06T04:16:16.709Z,40.17
2023-05-06T04:18:44.412Z,44.78
2023-05-06T04:21:14.048Z,31.85
2023-05-06T04:23:44.220Z,31.50
2023-05-06T04:26:14.154Z,29.40
2023-05-06T04:28:42.148Z,54.60
2023-05-06T04:31:10.694Z,97.40
2023-05-06T04:33:44.508Z,78.90
2023-05-06T04:36:15.681Z,59.65
2023-05-06T04:38:53.185Z,88.55
2023-05-06T04:41:20.522Z,81.03
2023-05-06T04:43:47.146Z,104.47
2023-05-06T04:46:19.589Z,78.10
2023-05-06T04:48:47.156Z,215.38
2023-05-06T04:51:15.211Z,85.88
2023-05-06T04:53:42.155Z,200.52
2023-05-06T04:56:09.238Z,152.05
2023-05-06T04:58:36.667Z,79.68
2023-05-06T05:01:06.451Z,112.95
2023-05-06T05:03:33.249Z,204.63
2023-05-06T05:06:01.757Z,66.18
2023-05-06T05:08:28.412Z,100.85
2023-05-06T05:10:55.692Z,88.95
2023-05-06T05:13:24.753Z,64.13
2023-05-06T05:15:55.977Z,25.88
2023-05-06T05:18:25.633Z,137.32
2023-05-06T05:20:56.265Z,73.25
2023-05-06T05:23:23.172Z,137.30
2023-05-06T05:25:50.243Z,112.82
2023-05-06T05:28:17.269Z,50.13
2023-05-06T05:30:43.956Z,57.00
2023-05-06T05:33:10.694Z,58.92
2023-05-06T05:35:38.357Z,41.88
2023-05-06T05:38:05.657Z,34.80
2023-05-06T05:40:32.273Z,58.22
2023-05-06T05:42:58.941Z,65.90
2023-05-06T05:45:34.269Z,32.33
2023-05-06T05:48:01.371Z,88.80
2023-05-06T05:50:27.975Z,55.80
2023-05-06T05:52:56.795Z,33.63
2023-05-06T05:55:24.422Z,36.88
2023-05-06T05:57:51.797Z,39.83
2023-05-06T06:00:21.122Z,81.88
2023-05-06T06:02:47.743Z,66.55
2023-05-06T06:05:18.714Z,61.20
2023-05-06T06:07:46.913Z,72.97
2023-05-06T06:10:15.338Z,74.50
2023-05-06T06:12:44.675Z,57.78
2023-05-06T06:15:14.834Z,91.22
2023-05-06T06:17:44.049Z,58.58
2023-05-06T06:20:12.700Z,41.38
2023-05-06T06:22:39.409Z,37.70
2023-05-06T06:25:06.519Z,28.35
2023-05-06T06:27:39.144Z,57.30
2023-05-06T06:30:07.708Z,25.65
2023-05-06T06:32:34.460Z,102.60
2023-05-06T06:35:01.136Z,31.17
2023-05-06T06:37:27.766Z,38.90
2023-05-06T06:39:54.336Z,40.08
2023-05-06T06:42:21.058Z,45.28
2023-05-06T06:44:57.992Z,31.63
2023-05-06T06:47:24.698Z,21.63
2023-05-06T06:49:51.302Z,31.23
2023-05-06T06:52:17.904Z,20.80
2023-05-06T06:54:44.457Z,22.77
2023-05-06T06:57:11.209Z,44.20
2023-05-06T06:59:37.900Z,45.38
2023-05-06T07:02:04.568Z,34.95
2023-05-06T07:04:31.197Z,39.30
2023-05-06T07:06:57.919Z,22.05
2023-05-06T07:09:24.519Z,33.75
2023-05-06T07:11:51.532Z,26.05
2023-05-06T07:14:18.169Z,21.23
2023-05-06T07:16:46.394Z,22.20
2023-05-06T07:19:13.768Z,17.35
2023-05-06T07:21:40.419Z,18.80
2023-05-06T07:24:07.404Z,20.60
2023-05-06T07:26:37.535Z,20.65
2023-05-06T07:29:04.490Z,15.50
2023-05-06T07:31:34.302Z,19.88
2023-05-06T07:34:01.085Z,17.17
2023-05-06T07:36:28.607Z,19.98
2023-05-06T07:38:55.333Z,21.80
2023-05-06T07:41:22.039Z,16.98
2023-05-06T07:43:48.617Z,19.73
2023-05-06T07:46:15.697Z,19.38
2023-05-06T07:48:42.314Z,20.13
2023-05-06T07:51:09.087Z,20.17
2023-05-06T07:53:38.052Z,18.20
2023-05-06T07:56:05.151Z,19.05
2023-05-06T07:58:32.078Z,19.73
2023-05-06T08:00:58.841Z,15.30
2023-05-06T08:03:25.938Z,12.95
2023-05-06T08:05:55.084Z,13.60
2023-05-06T08:08:22.881Z,12.88
2023-05-06T08:10:49.482Z,11.93
2023-05-06T08:13:16.255Z,14.63
2023-05-06T08:15:43.162Z,13.32
2023-05-06T08:18:21.094Z,14.05
2023-05-06T08:20:49.225Z,14.23
2023-05-06T08:23:15.791Z,13.27
2023-05-06T08:25:42.749Z,13.32
2023-05-06T08:28:09.422Z,14.32
2023-05-06T08:30:36.573Z,15.13
2023-05-06T08:33:03.869Z,15.93
2023-05-06T08:35:30.716Z,13.65
2023-05-06T08:37:57.343Z,12.85
2023-05-06T08:40:26.471Z,15.90
2023-05-06T08:42:55.586Z,13.18
2023-05-06T08:45:23.596Z,9.93
2023-05-06T08:47:50.293Z,10.88
2023-05-06T08:50:16.897Z,9.30
2023-05-06T08:52:43.646Z,8.50
2023-05-06T08:55:10.550Z,9.07
2023-05-06T08:57:37.586Z,9.80
2023-05-06T09:00:05.079Z,6.72
2023-05-06T09:02:33.581Z,8.13
2023-05-06T09:05:00.823Z,7.50
2023-05-06T09:07:27.564Z,7.05
2023-05-06T09:09:54.153Z,7.22
2023-05-06T09:12:20.729Z,5.95
2023-05-06T09:14:49.466Z,8.10
2023-05-06T09:17:24.359Z,6.97
2023-05-06T09:19:53.135Z,6.82
2023-05-06T09:22:27.699Z,6.93
2023-05-06T09:24:57.968Z,7.55
2023-05-06T09:27:29.001Z,6.25
2023-05-06T09:30:09.917Z,4.70
2023-05-06T09:32:39.246Z,4.55
2023-05-06T09:35:07.468Z,5.43
2023-05-06T09:37:34.174Z,5.50
2023-05-06T09:40:01.147Z,4.38
2023-05-06T09:42:31.242Z,2.72
2023-05-06T09:47:35.116Z,3.25
2023-05-06T09:50:02.976Z,4.32
2023-05-06T09:52:30.171Z,2.33
2023-05-06T09:54:57.417Z,2.75
2023-05-06T09:57:24.585Z,3.15
2023-05-06T09:59:54.466Z,2.40
2023-05-06T10:02:23.030Z,1.85
2023-05-06T10:04:50.755Z,2.60
2023-05-06T10:07:22.587Z,2.63
2023-05-06T10:09:51.134Z,3.67
2023-05-06T10:12:19.116Z,3.58
2023-05-06T10:14:46.173Z,1.73
2023-05-06T10:17:13.709Z,4.45
2023-05-06T10:19:44.507Z,1.73
2023-05-06T10:22:13.968Z,1.60
2023-05-06T10:25:05.517Z,4.10
2023-05-06T10:27:35.688Z,1.65
2023-05-06T10:32:32.454Z,2.72
2023-05-06T10:35:08.577Z,4.95
2023-05-06T10:37:35.925Z,4.28
2023-05-06T10:40:04.608Z,2.67
2023-05-06T10:42:35.388Z,2.17
2023-05-06T10:45:04.022Z,2.42
2023-05-06T10:47:58.595Z,3.08
2023-05-06T10:50:26.669Z,3.42
2023-05-06T10:52:55.598Z,1.95
2023-05-06T10:55:27.194Z,4.53
2023-05-06T10:57:56.543Z,1.95
2023-05-06T11:00:23.774Z,2.97
2023-05-06T11:02:54.996Z,2.22
2023-05-06T11:05:22.693Z,4.22
2023-05-06T11:07:55.613Z,3.67
2023-05-06T11:10:32.824Z,2.97
2023-05-06T11:13:19.032Z,1.85
2023-05-06T11:15:46.349Z,2.03
2023-05-06T11:18:25.463Z,2.85
2023-05-06T11:21:05.260Z,2.22
2023-05-06T11:23:49.140Z,1.73
2023-05-06T11:26:16.144Z,1.88
2023-05-06T11:28:44.464Z,1.83
2023-05-06T11:31:12.990Z,2.53
2023-05-06T11:33:46.378Z,2.60
2023-05-06T11:36:17.621Z,3.35
2023-05-06T11:38:46.468Z,1.17
2023-05-06T11:41:14.024Z,1.65
2023-05-06T11:43:46.113Z,1.42
2023-05-06T11:46:12.782Z,3.25
2023-05-06T11:48:39.492Z,3.60
2023-05-06T11:51:06.116Z,1.65
2023-05-06T11:53:32.721Z,1.55
2023-05-06T11:55:59.326Z,1.45
2023-05-06T11:58:28.158Z,1.75
2023-05-06T12:00:56.554Z,1.70
2023-05-06T12:03:24.541Z,1.35
2023-05-06T12:05:52.024Z,4.50
2023-05-06T12:08:32.127Z,1.73
2023-05-06T12:13:27.598Z,2.22
2023-05-06T12:15:55.311Z,2.10
2023-05-06T12:18:22.599Z,1.30
2023-05-06T12:20:49.188Z,2.88
2023-05-06T12:23:16.314Z,4.07
2023-05-06T12:25:44.740Z,1.80
2023-05-06T12:28:22.795Z,1.63
2023-05-06T12:30:49.444Z,2.97
2023-05-06T12:33:15.988Z,2.08
2023-05-06T12:35:42.625Z,1.85
2023-05-06T12:38:11.343Z,1.17
2023-05-06T12:40:38.588Z,1.55
2023-05-06T12:43:05.400Z,1.35
2023-05-06T12:45:32.254Z,2.72
2023-05-06T12:48:02.187Z,1.05
2023-05-06T12:53:06.492Z,1.50
2023-05-06T12:55:33.655Z,2.42
2023-05-06T12:58:00.518Z,1.00
2023-05-06T13:00:27.350Z,4.30
2023-05-06T13:02:54.181Z,1.05
2023-05-06T13:05:20.889Z,3.47
2023-05-06T13:07:47.818Z,1.42
2023-05-06T13:10:14.619Z,1.35
2023-05-06T13:12:41.554Z,2.03
2023-05-06T13:15:09.396Z,1.23
2023-05-06T13:17:35.966Z,1.38
2023-05-06T13:20:05.008Z,12.90
2023-05-06T13:22:40.345Z,2.25
2023-05-06T13:25:13.967Z,1.98
2023-05-06T13:27:40.632Z,1.17
2023-05-06T13:30:08.811Z,1.45
2023-05-06T13:32:35.681Z,0.88
2023-05-06T13:35:02.368Z,2.25
2023-05-06T13:37:29.199Z,1.92
2023-05-06T13:39:55.891Z,1.73
2023-05-06T13:42:22.614Z,2.10
2023-05-06T13:44:49.349Z,1.63
2023-05-06T13:47:16.097Z,1.42
2023-05-06T13:49:42.756Z,1.33
2023-05-06T13:52:09.479Z,2.78
2023-05-06T13:54:36.060Z,2.10
2023-05-06T13:57:02.789Z,1.52
2023-05-06T13:59:29.443Z,0.82
2023-05-06T14:01:57.094Z,1.05
2023-05-06T14:04:23.886Z,1.80
2023-05-06T14:06:51.430Z,1.20
2023-05-06T14:09:18.931Z,1.42
2023-05-06T14:11:45.523Z,0.95
2023-05-06T14:14:12.073Z,7.80
2023-05-06T14:16:38.732Z,1.65
2023-05-06T14:19:05.681Z,1.63
2023-05-06T14:21:32.445Z,3.05
2023-05-06T14:23:59.083Z,3.55
2023-05-06T14:26:26.747Z,2.00
2023-05-06T14:28:53.480Z,0.70
2023-05-06T14:31:20.095Z,2.55
2023-05-06T14:33:46.804Z,1.70
2023-05-06T14:36:18.199Z,5.75
2023-05-06T14:38:44.898Z,7.05
2023-05-06T14:41:11.562Z,1.67
2023-05-06T14:43:38.231Z,1.88
2023-05-06T14:46:05.099Z,1.23
2023-05-06T14:48:31.972Z,1.58
2023-05-06T14:50:59.343Z,3.75
2023-05-06T14:53:25.925Z,0.93
2023-05-06T14:55:52.562Z,0.85
2023-05-06T14:58:19.104Z,1.80
2023-05-06T15:00:45.793Z,3.97
2023-05-06T15:03:12.380Z,1.60
2023-05-06T15:05:39.048Z,0.90
2023-05-06T15:08:05.830Z,2.03
2023-05-06T15:10:32.436Z,1.80
2023-05-06T15:12:59.117Z,1.50
2023-05-06T15:15:25.866Z,1.30
2023-05-06T15:17:52.450Z,3.92
2023-05-06T15:20:19.115Z,0.82
2023-05-06T15:22:45.741Z,4.15
2023-05-06T15:25:19.338Z,4.43
2023-05-06T15:27:49.421Z,5.00
2023-05-06T15:30:16.174Z,1.67
2023-05-06T15:32:43.012Z,1.13
2023-05-06T15:35:09.910Z,7.00
2023-05-06T15:37:36.658Z,2.35
2023-05-06T15:40:05.429Z,4.03
2023-05-06T15:42:32.194Z,2.22
2023-05-06T15:44:58.938Z,4.60
2023-05-06T15:47:25.614Z,1.88
2023-05-06T15:49:55.012Z,0.70
2023-05-06T15:52:22.577Z,2.28
2023-05-06T15:54:50.105Z,0.65
2023-05-06T15:57:17.431Z,1.75
2023-05-06T15:59:44.049Z,1.00
2023-05-06T16:04:40.943Z,0.70
2023-05-06T16:07:07.744Z,0.85
2023-05-06T16:09:34.324Z,1.58
2023-05-06T16:12:01.195Z,1.30
2023-05-06T16:14:27.773Z,2.53
2023-05-06T16:16:54.334Z,0.93
2023-05-06T16:19:20.937Z,2.17
2023-05-06T16:21:48.335Z,3.50
2023-05-06T16:24:15.870Z,4.70
2023-05-06T16:26:42.528Z,1.35
2023-05-06T16:29:10.105Z,2.13
2023-05-06T16:31:37.521Z,2.28
2023-05-06T16:34:04.309Z,3.70
2023-05-06T16:36:31.352Z,2.45
2023-05-06T16:38:58.063Z,3.38
2023-05-06T16:41:24.860Z,1.30
2023-05-06T16:43:51.667Z,2.05
2023-05-06T16:46:18.438Z,2.75
2023-05-06T16:48:45.779Z,4.78
2023-05-06T16:51:14.298Z,5.03
2023-05-06T16:53:40.908Z,3.10
2023-05-06T16:56:07.652Z,2.70
2023-05-06T16:58:34.819Z,2.95
2023-05-06T17:01:01.518Z,3.20
2023-05-06T17:03:28.212Z,2.28
2023-05-06T17:05:54.905Z,3.00
2023-05-06T17:08:22.991Z,3.55
2023-05-06T17:10:51.066Z,3.23
2023-05-06T17:13:17.841Z,2.13
2023-05-06T17:15:44.650Z,4.43
2023-05-06T17:18:11.419Z,1.77
2023-05-06T17:20:51.565Z,3.63
2023-05-06T17:23:22.154Z,1.77
2023-05-06T17:25:48.864Z,2.00
2023-05-06T17:28:16.776Z,3.60
2023-05-06T17:30:44.743Z,3.47
2023-05-06T17:33:11.478Z,1.85
2023-05-06T17:35:38.216Z,3.10
2023-05-06T17:38:04.968Z,1.88
2023-05-06T17:40:31.534Z,4.20
2023-05-06T17:42:58.091Z,5.65
2023-05-06T17:45:25.373Z,2.33
2023-05-06T17:47:52.440Z,2.83
2023-05-06T17:50:19.052Z,6.38
2023-05-06T17:52:48.694Z,2.85
2023-05-06T17:55:17.438Z,2.72
2023-05-06T17:57:44.335Z,2.78
2023-05-06T18:00:11.438Z,1.58
2023-05-06T18:02:42.649Z,1.65
2023-05-06T18:05:10.010Z,3.28
2023-05-06T18:07:37.077Z,3.70
2023-05-06T18:10:03.869Z,2.92
2023-05-06T18:12:30.917Z,3.45
2023-05-06T18:14:57.882Z,2.88
2023-05-06T18:17:24.538Z,2.25
2023-05-06T18:19:51.284Z,2.10
2023-05-06T18:22:17.885Z,2.30
2023-05-06T18:24:44.488Z,3.97
2023-05-06T18:27:12.864Z,1.98
2023-05-06T18:29:41.464Z,3.97
2023-05-06T18:32:08.294Z,2.10
2023-05-06T18:34:35.299Z,1.67
2023-05-06T18:37:02.267Z,2.75
2023-05-06T18:39:28.896Z,1.98
2023-05-06T18:41:55.657Z,3.47
2023-05-06T18:44:22.222Z,1.58
2023-05-06T18:46:48.966Z,2.80
2023-05-06T18:49:15.645Z,3.15
2023-05-06T18:51:42.305Z,3.85
2023-05-06T18:54:08.910Z,2.80
2023-05-06T18:56:36.808Z,3.30
2023-05-06T18:59:03.553Z,1.65
2023-05-06T19:01:30.264Z,1.83
2023-05-06T19:03:57.010Z,4.70
2023-05-06T19:06:23.579Z,3.13
2023-05-06T19:08:50.197Z,2.03
2023-05-06T19:11:18.898Z,2.55
2023-05-06T19:13:46.187Z,1.83
2023-05-06T19:16:13.617Z,1.50
2023-05-06T19:18:40.415Z,1.95
2023-05-06T19:21:09.649Z,2.75
2023-05-06T19:23:36.476Z,4.40
2023-05-06T19:26:05.702Z,1.63
2023-05-06T19:28:33.393Z,2.10
2023-05-06T19:31:00.084Z,3.33
2023-05-06T19:33:26.871Z,5.25
2023-05-06T19:35:53.486Z,2.47
2023-05-06T19:38:21.200Z,2.33
2023-05-06T19:40:47.844Z,1.60
2023-05-06T19:43:14.496Z,3.08
2023-05-06T19:45:41.774Z,2.60
2023-05-06T19:48:08.702Z,2.10
2023-05-06T19:50:36.519Z,2.55
2023-05-06T19:53:03.471Z,2.83
2023-05-06T19:55:30.937Z,3.88
2023-05-06T19:57:57.755Z,1.90
2023-05-06T20:00:27.111Z,2.15
2023-05-06T20:02:58.538Z,2.20
2023-05-06T20:05:30.739Z,2.92
2023-05-06T20:07:59.670Z,2.67
2023-05-06T20:10:27.269Z,2.58
2023-05-06T20:12:56.017Z,2.17
2023-05-06T20:15:23.844Z,2.05
2023-05-06T20:17:50.548Z,1.65
2023-05-06T20:20:17.554Z,3.60
2023-05-06T20:22:44.215Z,3.08
2023-05-06T20:25:13.029Z,2.85
2023-05-06T20:27:40.108Z,2.85
2023-05-06T20:30:08.062Z,3.65
2023-05-06T20:32:35.249Z,4.22
2023-05-06T20:35:01.975Z,2.60
2023-05-06T20:37:29.306Z,1.88
2023-05-06T20:39:56.309Z,3.28
2023-05-06T20:42:22.929Z,2.30
2023-05-06T20:44:52.632Z,2.38
2023-05-06T20:47:19.722Z,2.10
2023-05-06T20:49:46.523Z,2.80
2023-05-06T20:52:14.568Z,2.65
2023-05-06T20:54:42.593Z,2.20
2023-05-06T20:57:09.685Z,5.35
2023-05-06T20:59:36.496Z,2.50
2023-05-06T21:02:03.841Z,2.60
2023-05-06T21:04:30.944Z,2.00
2023-05-06T21:06:57.815Z,1.63
2023-05-06T21:09:24.656Z,2.60
2023-05-06T21:11:51.303Z,2.88
2023-05-06T21:14:18.916Z,2.38
2023-05-06T21:16:45.604Z,4.50
2023-05-06T21:19:12.185Z,1.88
2023-05-06T21:21:38.767Z,3.45
2023-05-06T21:24:05.535Z,2.97
2023-05-06T21:26:32.753Z,2.92
2023-05-06T21:28:59.379Z,2.00
2023-05-06T21:31:26.729Z,1.92
2023-05-06T21:33:57.922Z,2.42
2023-05-06T21:36:24.826Z,2.75
2023-05-06T21:39:08.463Z,2.95
2023-05-06T21:41:35.945Z,5.35
2023-05-06T21:44:06.076Z,3.90
2023-05-06T21:46:32.875Z,4.68
2023-05-06T21:49:00.229Z,4.93
2023-05-06T21:51:28.146Z,3.33
2023-05-06T21:53:54.802Z,3.90
2023-05-06T21:56:21.975Z,4.80
2023-05-06T21:58:48.851Z,1.90
2023-05-06T22:01:15.681Z,4.07
2023-05-06T22:03:42.566Z,3.83
2023-05-06T22:06:09.280Z,4.40
2023-05-06T22:08:35.838Z,3.85
2023-05-06T22:11:03.568Z,3.50
2023-05-06T22:13:31.080Z,3.08
2023-05-06T22:15:57.860Z,2.60
2023-05-06T22:18:25.630Z,3.05
2023-05-06T22:20:56.407Z,2.38
2023-05-06T22:23:23.940Z,2.05
2023-05-06T22:25:53.958Z,2.90
2023-05-06T22:28:20.680Z,3.92
2023-05-06T22:30:47.305Z,3.00
2023-05-06T22:33:13.875Z,3.22
2023-05-06T22:35:40.541Z,5.95
2023-05-06T22:38:07.192Z,2.90
2023-05-06T22:40:33.983Z,3.42
2023-05-06T22:43:00.569Z,2.95
2023-05-06T22:45:27.256Z,5.15
2023-05-06T22:47:54.022Z,4.80
2023-05-06T22:50:20.626Z,5.00
2023-05-06T22:52:47.289Z,3.97
2023-05-06T22:55:14.881Z,5.03
2023-05-06T22:57:41.707Z,4.35
2023-05-06T23:00:10.454Z,5.45
2023-05-06T23:02:37.098Z,5.55
2023-05-06T23:05:03.956Z,4.45
2023-05-06T23:07:30.646Z,5.80
2023-05-06T23:09:59.399Z,6.70
2023-05-06T23:12:25.988Z,3.22
2023-05-06T23:14:52.559Z,4.25
2023-05-06T23:17:19.099Z,5.63
2023-05-06T23:19:46.022Z,2.80
2023-05-06T23:22:12.722Z,3.40
2023-05-06T23:24:39.465Z,4.80
2023-05-06T23:27:06.053Z,5.85
2023-05-06T23:29:32.642Z,2.83
2023-05-06T23:31:59.291Z,4.10
2023-05-06T23:34:27.284Z,5.50
2023-05-06T23:36:54.046Z,4.80
2023-05-06T23:39:21.670Z,3.90
2023-05-06T23:41:48.242Z,5.72
2023-05-06T23:44:14.791Z,3.35
2023-05-06T23:46:41.469Z,4.50
2023-05-06T23:49:08.093Z,5.05
2023-05-06T23:51:34.648Z,3.80
2023-05-06T23:54:01.395Z,3.17
2023-05-06T23:56:28.424Z,2.70
2023-05-06T23:58:54.987Z,3.30
